Time;durP1;ratioP1;P1;durP2;ratioP2;P2;SDS_P1;SDS_P2;PMS_P1;PMS_P2;Temp;Humidity;BMP_temperature;BMP_pressure;BME280_temperature;BME280_humidity;BME280_pressure;Samples;Min_cycle;Max_cycle;Signal;HPM_P1;HPM_P2
2022/03/16 00:01:20;;;;;;;25.30;19.40;;;;;;;;;;5062234;28;20228;-78
2022/03/16 00:03:46;;;;;;;24.80;20.47;;;;;;;;;;5059634;28;20215;-79
2022/03/16 00:06:13;;;;;;;57.87;21.83;;;;;;;;;;5062682;28;20741;-78
2022/03/16 00:08:39;;;;;;;69.30;24.30;;;;;;;;;;5061956;28;20261;-79
2022/03/16 00:11:05;;;;;;;56.93;23.13;;;;;;;;;;5059642;28;20197;-79
2022/03/16 00:13:33;;;;;;;25.83;20.80;;;;;;;;;;5045972;28;20185;-78
2022/03/16 00:15:59;;;;;;;28.60;20.17;;;;;;;;;;5059812;28;20197;-78
2022/03/16 00:18:25;;;;;;;27.73;19.33;;;;;;;;;;5061193;28;20187;-78
2022/03/16 00:20:52;;;;;;;25.70;19.80;;;;;;;;;;5063885;28;20197;-78
2022/03/16 00:23:18;;;;;;;28.43;19.67;;;;;;;;;;5062345;28;20196;-78
2022/03/16 00:25:45;;;;;;;26.43;20.20;;;;;;;;;;5063801;28;20241;-79
2022/03/16 00:28:12;;;;;;;44.10;24.50;;;;;;;;;;5061606;28;20356;-79
2022/03/16 00:30:38;;;;;;;45.23;19.97;;;;;;;;;;5059390;28;21192;-79
2022/03/16 00:33:05;;;;;;;24.87;18.67;;;;;;;;;;5062176;28;20186;-78
2022/03/16 00:35:31;;;;;;;27.17;19.67;;;;;;;;;;5072318;28;20242;-79
2022/03/16 00:37:57;;;;;;;59.20;21.20;;;;;;;;;;5059819;28;20170;-79
2022/03/16 00:40:25;;;;;;;60.27;20.70;;;;;;;;;;5066538;28;20192;-79
2022/03/16 00:42:52;;;;;;;37.73;21.00;;;;;;;;;;5069710;28;20185;-79
2022/03/16 00:45:18;;;;;;;25.70;18.27;;;;;;;;;;5064272;28;20702;-79
2022/03/16 00:47:45;;;;;;;41.67;20.33;;;;;;;;;;5059293;28;20208;-78
2022/03/16 00:50:11;;;;;;;25.87;18.27;;;;;;;;;;5061491;28;20207;-79
2022/03/16 00:52:38;;;;;;;27.53;20.03;;;;;;;;;;5049052;28;20676;-79
2022/03/16 00:55:04;;;;;;;25.23;19.73;;;;;;;;;;5068972;28;20193;-79
2022/03/16 00:57:31;;;;;;;24.50;19.20;;;;;;;;;;5072687;28;20185;-79
2022/03/16 00:59:58;;;;;;;27.30;19.83;;;;;;;;;;5073834;28;20193;-78
2022/03/16 01:02:24;;;;;;;26.27;19.23;;;;;;;;;;5082270;28;20223;-79
2022/03/16 01:04:51;;;;;;;24.00;18.47;;;;;;;;;;5054000;28;20212;-78
2022/03/16 01:07:17;;;;;;;23.83;18.60;;;;;;;;;;5065455;28;20185;-79
2022/03/16 01:09:43;;;;;;;24.67;18.87;;;;;;;;;;5070204;28;20625;-78
2022/03/16 01:12:09;;;;;;;23.00;18.43;;;;;;;;;;5060753;28;20225;-78
2022/03/16 01:14:35;;;;;;;23.17;18.50;;;;;;;;;;5067862;28;20181;-78
2022/03/16 01:17:02;;;;;;;19.83;16.80;;;;;;;;;;5050797;28;20193;-78
2022/03/16 01:19:31;;;;;;;22.50;17.80;;;;;;;;;;5068676;28;20173;-79
2022/03/16 01:21:58;;;;;;;21.03;17.43;;;;;;;;;;5064685;28;20255;-79
2022/03/16 01:24:24;;;;;;;21.47;18.37;;;;;;;;;;5062997;28;20884;-78
2022/03/16 01:26:50;;;;;;;23.17;18.23;;;;;;;;;;5059952;28;20272;-79
2022/03/16 01:29:16;;;;;;;25.60;18.27;;;;;;;;;;5066478;28;20660;-79
2022/03/16 01:31:43;;;;;;;21.87;17.53;;;;;;;;;;5063715;28;20198;-79
2022/03/16 01:34:09;;;;;;;23.13;18.00;;;;;;;;;;5068046;28;20185;-78
2022/03/16 01:36:37;;;;;;;23.93;17.93;;;;;;;;;;5074832;28;20712;-78
2022/03/16 01:39:04;;;;;;;26.47;19.53;;;;;;;;;;5049095;28;20242;-79
2022/03/16 01:41:31;;;;;;;23.20;18.20;;;;;;;;;;5065395;28;20209;-79
2022/03/16 01:43:57;;;;;;;25.90;20.13;;;;;;;;;;5068072;28;20684;-78
2022/03/16 01:46:24;;;;;;;26.80;21.33;;;;;;;;;;5068414;28;20204;-78
2022/03/16 01:48:53;;;;;;;24.80;19.43;;;;;;;;;;5046680;28;20544;-79
2022/03/16 01:51:20;;;;;;;22.23;18.37;;;;;;;;;;5053405;28;20209;-78
2022/03/16 01:53:46;;;;;;;23.93;19.60;;;;;;;;;;5072466;28;20247;-78
2022/03/16 01:56:15;;;;;;;22.67;18.47;;;;;;;;;;5066515;28;20265;-78
2022/03/16 01:58:41;;;;;;;22.70;18.40;;;;;;;;;;5056810;28;20197;-78
2022/03/16 02:01:07;;;;;;;22.17;18.40;;;;;;;;;;5064734;28;20221;-78
2022/03/16 02:03:34;;;;;;;26.83;20.13;;;;;;;;;;5072031;28;20712;-79
2022/03/16 02:06:00;;;;;;;24.27;19.10;;;;;;;;;;5092753;28;20181;-78
2022/03/16 02:08:30;;;;;;;25.53;18.77;;;;;;;;;;5071170;28;20242;-78
2022/03/16 02:10:56;;;;;;;26.30;20.43;;;;;;;;;;5075918;28;20203;-78
2022/03/16 02:13:22;;;;;;;27.80;20.77;;;;;;;;;;5074763;28;20189;-78
2022/03/16 02:15:48;;;;;;;31.50;21.93;;;;;;;;;;5066826;28;20364;-78
2022/03/16 02:18:14;;;;;;;29.30;21.43;;;;;;;;;;5052786;28;20185;-78
2022/03/16 02:20:40;;;;;;;27.77;20.43;;;;;;;;;;5072956;28;20196;-78
2022/03/16 02:23:07;;;;;;;28.07;20.37;;;;;;;;;;5070134;28;20189;-78
2022/03/16 02:25:34;;;;;;;26.60;19.70;;;;;;;;;;5072364;28;20699;-78
2022/03/16 02:28:01;;;;;;;23.27;18.73;;;;;;;;;;5064978;28;20252;-79
2022/03/16 02:30:28;;;;;;;24.70;18.67;;;;;;;;;;5067350;28;20198;-79
2022/03/16 02:32:55;;;;;;;24.93;18.90;;;;;;;;;;5065928;28;20256;-79
2022/03/16 02:35:22;;;;;;;24.93;18.57;;;;;;;;;;5064314;28;20178;-78
2022/03/16 02:37:48;;;;;;;24.23;17.70;;;;;;;;;;5071249;28;20224;-78
2022/03/16 02:40:21;;;;;;;24.93;17.93;;;;;;;;;;5067866;28;20188;-78
2022/03/16 02:42:48;;;;;;;26.80;19.23;;;;;;;;;;5065307;28;20189;-78
2022/03/16 02:45:15;;;;;;;25.87;19.63;;;;;;;;;;5068238;28;20761;-78
2022/03/16 02:47:41;;;;;;;28.93;21.03;;;;;;;;;;5068276;28;20212;-78
2022/03/16 02:50:07;;;;;;;26.57;20.27;;;;;;;;;;5068292;28;20672;-78
2022/03/16 02:52:33;;;;;;;25.83;18.53;;;;;;;;;;5069957;28;20542;-78
2022/03/16 02:55:00;;;;;;;25.63;18.77;;;;;;;;;;5055238;28;20220;-79
2022/03/16 02:57:26;;;;;;;28.33;19.87;;;;;;;;;;5066824;28;20269;-79
2022/03/16 02:59:52;;;;;;;26.13;19.90;;;;;;;;;;5071046;28;20196;-79
2022/03/16 03:02:18;;;;;;;32.53;22.57;;;;;;;;;;5071912;28;20436;-78
2022/03/16 03:04:44;;;;;;;27.57;19.63;;;;;;;;;;5071272;28;20209;-79
2022/03/16 03:07:10;;;;;;;29.63;20.30;;;;;;;;;;5063705;28;20224;-79
2022/03/16 03:09:36;;;;;;;28.53;20.17;;;;;;;;;;5066384;28;20269;-79
2022/03/16 03:12:03;;;;;;;26.80;19.27;;;;;;;;;;5061604;28;20211;-79
2022/03/16 03:14:30;;;;;;;25.83;18.73;;;;;;;;;;5071607;28;20194;-79
2022/03/16 03:16:56;;;;;;;26.70;19.20;;;;;;;;;;5077656;28;20201;-79
2022/03/16 03:19:22;;;;;;;31.87;21.97;;;;;;;;;;5056493;28;20225;-78
2022/03/16 03:21:49;;;;;;;31.47;22.87;;;;;;;;;;5068435;28;20209;-78
2022/03/16 03:24:15;;;;;;;32.77;23.07;;;;;;;;;;5072904;28;20580;-79
2022/03/16 03:26:41;;;;;;;29.87;21.27;;;;;;;;;;5073724;28;20240;-78
2022/03/16 03:29:08;;;;;;;30.63;22.27;;;;;;;;;;5073282;28;20731;-78
2022/03/16 03:31:34;;;;;;;29.67;21.40;;;;;;;;;;5069847;28;20232;-79
2022/03/16 03:34:01;;;;;;;32.73;23.67;;;;;;;;;;5073604;28;20195;-79
2022/03/16 03:36:27;;;;;;;30.20;21.57;;;;;;;;;;5072633;28;20189;-79
2022/03/16 03:38:53;;;;;;;31.67;22.33;;;;;;;;;;5056027;28;20226;-78
2022/03/16 03:41:20;;;;;;;30.50;22.67;;;;;;;;;;5077366;28;20220;-78
2022/03/16 03:43:46;;;;;;;30.70;21.97;;;;;;;;;;5080752;28;20555;-78
2022/03/16 03:46:12;;;;;;;32.80;23.20;;;;;;;;;;5067779;28;20174;-78
2022/03/16 03:48:38;;;;;;;30.80;22.10;;;;;;;;;;5070181;28;20178;-78
2022/03/16 03:51:04;;;;;;;31.63;21.87;;;;;;;;;;5071127;28;20197;-78
2022/03/16 03:53:30;;;;;;;33.20;23.03;;;;;;;;;;5070072;28;20525;-78
2022/03/16 03:55:57;;;;;;;33.50;23.17;;;;;;;;;;5069099;28;20184;-79
2022/03/16 03:58:23;;;;;;;29.70;20.70;;;;;;;;;;5069614;28;20177;-78
2022/03/16 04:00:49;;;;;;;31.03;22.57;;;;;;;;;;5069168;28;20209;-83
2022/03/16 04:03:16;;;;;;;31.93;22.07;;;;;;;;;;5052928;28;20187;-78
2022/03/16 04:05:42;;;;;;;32.93;23.47;;;;;;;;;;5052179;28;20209;-79
2022/03/16 04:08:08;;;;;;;33.37;23.13;;;;;;;;;;5070652;28;20185;-79
2022/03/16 04:10:39;;;;;;;31.63;21.47;;;;;;;;;;5069999;28;20231;-79
2022/03/16 04:13:05;;;;;;;31.03;21.97;;;;;;;;;;5069549;28;20652;-79
2022/03/16 04:15:31;;;;;;;30.87;21.73;;;;;;;;;;5071863;28;20253;-79
2022/03/16 04:17:58;;;;;;;29.87;21.27;;;;;;;;;;5066589;28;20192;-79
2022/03/16 04:20:24;;;;;;;32.23;21.50;;;;;;;;;;5071899;28;20258;-78
2022/03/16 04:22:50;;;;;;;30.17;21.23;;;;;;;;;;5048307;28;20185;-79
2022/03/16 04:25:16;;;;;;;34.17;22.20;;;;;;;;;;5063941;28;20732;-79
2022/03/16 04:27:42;;;;;;;30.90;21.17;;;;;;;;;;5072080;28;20663;-79
2022/03/16 04:30:09;;;;;;;31.07;22.33;;;;;;;;;;5077019;28;20169;-79
2022/03/16 04:32:35;;;;;;;30.13;21.83;;;;;;;;;;5070931;28;20186;-79
2022/03/16 04:35:01;;;;;;;34.87;23.87;;;;;;;;;;5073848;28;20534;-79
2022/03/16 04:37:27;;;;;;;31.90;23.23;;;;;;;;;;5062190;28;20683;-79
2022/03/16 04:39:54;;;;;;;30.27;21.93;;;;;;;;;;5073340;28;20272;-79
2022/03/16 04:42:20;;;;;;;31.10;21.77;;;;;;;;;;5069942;28;20204;-79
2022/03/16 04:44:46;;;;;;;29.70;21.13;;;;;;;;;;5060936;28;20643;-79
2022/03/16 04:47:12;;;;;;;29.27;20.53;;;;;;;;;;5051910;28;20237;-79
2022/03/16 04:49:39;;;;;;;29.80;21.47;;;;;;;;;;5081550;28;20189;-79
2022/03/16 04:52:05;;;;;;;29.07;21.00;;;;;;;;;;5069040;28;20216;-78
2022/03/16 04:54:31;;;;;;;33.17;23.77;;;;;;;;;;5069491;28;20234;-79
2022/03/16 04:56:57;;;;;;;30.70;21.50;;;;;;;;;;5067816;28;20189;-79
2022/03/16 04:59:24;;;;;;;33.67;24.80;;;;;;;;;;5073238;28;20189;-79
2022/03/16 05:01:50;;;;;;;34.00;23.10;;;;;;;;;;5066037;28;20227;-79
2022/03/16 05:04:16;;;;;;;32.97;22.03;;;;;;;;;;5070815;28;20217;-79
2022/03/16 05:06:42;;;;;;;29.60;21.57;;;;;;;;;;5066911;28;20182;-79
2022/03/16 05:09:08;;;;;;;30.77;21.53;;;;;;;;;;5065170;28;20185;-79
2022/03/16 05:11:36;;;;;;;32.13;22.73;;;;;;;;;;5073653;28;20239;-79
2022/03/16 05:14:02;;;;;;;30.23;21.20;;;;;;;;;;5074857;28;20185;-79
2022/03/16 05:16:28;;;;;;;27.07;19.63;;;;;;;;;;5088769;28;20605;-79
2022/03/16 05:18:54;;;;;;;33.47;24.10;;;;;;;;;;5072081;28;20181;-79
2022/03/16 05:21:20;;;;;;;30.30;22.43;;;;;;;;;;5071665;28;22285;-79
2022/03/16 05:23:46;;;;;;;26.07;20.03;;;;;;;;;;5073791;28;20209;-79
2022/03/16 05:26:12;;;;;;;25.90;19.60;;;;;;;;;;5074672;28;20208;-79
2022/03/16 05:28:39;;;;;;;27.87;20.20;;;;;;;;;;5073777;28;20184;-79
2022/03/16 05:31:05;;;;;;;26.73;18.43;;;;;;;;;;5072984;28;20242;-79
2022/03/16 05:33:31;;;;;;;25.97;18.37;;;;;;;;;;5070036;28;20193;-79
2022/03/16 05:35:57;;;;;;;27.70;18.80;;;;;;;;;;5070939;28;20173;-79
2022/03/16 05:38:23;;;;;;;28.40;20.33;;;;;;;;;;5071439;28;20177;-79
2022/03/16 05:40:50;;;;;;;29.60;20.77;;;;;;;;;;5075101;28;20234;-79
2022/03/16 05:43:16;;;;;;;29.60;20.80;;;;;;;;;;5071754;28;20177;-79
2022/03/16 05:45:42;;;;;;;32.20;21.63;;;;;;;;;;5076141;28;20201;-78
2022/03/16 05:48:08;;;;;;;32.63;22.30;;;;;;;;;;5076303;28;20173;-78
2022/03/16 05:50:35;;;;;;;29.70;20.57;;;;;;;;;;5074850;28;20259;-79
2022/03/16 05:53:03;;;;;;;28.53;20.17;;;;;;;;;;5069322;28;20311;-79
2022/03/16 05:55:29;;;;;;;29.73;20.23;;;;;;;;;;5074480;28;20181;-79
2022/03/16 05:57:55;;;;;;;28.73;20.53;;;;;;;;;;5074834;28;20169;-79
2022/03/16 06:00:22;;;;;;;30.70;22.43;;;;;;;;;;5055964;28;20204;-79
2022/03/16 06:02:49;;;;;;;34.00;22.77;;;;;;;;;;5074450;28;21058;-79
2022/03/16 06:05:15;;;;;;;33.77;22.67;;;;;;;;;;5073352;28;20201;-79
2022/03/16 06:07:42;;;;;;;33.10;22.13;;;;;;;;;;5071689;28;20703;-79
2022/03/16 06:10:09;;;;;;;30.27;21.43;;;;;;;;;;5072573;28;20180;-79
2022/03/16 06:12:49;;;;;;;34.40;22.93;;;;;;;;;;5067103;28;20181;-79
2022/03/16 06:15:15;;;;;;;28.77;20.67;;;;;;;;;;5070786;28;20188;-78
2022/03/16 06:17:41;;;;;;;34.17;22.83;;;;;;;;;;5055773;28;20185;-79
2022/03/16 06:20:07;;;;;;;31.53;22.83;;;;;;;;;;5067208;28;20364;-79
2022/03/16 06:22:33;;;;;;;27.80;20.50;;;;;;;;;;5068486;28;20284;-79
2022/03/16 06:24:59;;;;;;;32.40;22.53;;;;;;;;;;5071198;28;20201;-79
2022/03/16 06:27:25;;;;;;;27.60;19.60;;;;;;;;;;5067548;28;20210;-79
2022/03/16 06:29:52;;;;;;;30.53;22.33;;;;;;;;;;5076471;28;20189;-79
2022/03/16 06:32:18;;;;;;;30.60;21.00;;;;;;;;;;5076557;28;20209;-79
2022/03/16 06:34:46;;;;;;;28.97;20.00;;;;;;;;;;5073790;28;20191;-79
2022/03/16 06:37:13;;;;;;;24.33;18.40;;;;;;;;;;5072468;28;20668;-78
2022/03/16 06:39:39;;;;;;;23.97;17.33;;;;;;;;;;5067891;28;20181;-78
2022/03/16 06:42:05;;;;;;;21.47;16.30;;;;;;;;;;5069180;28;20201;-81
2022/03/16 06:44:32;;;;;;;19.73;15.13;;;;;;;;;;5083231;28;20594;-81
2022/03/16 06:46:58;;;;;;;20.80;16.77;;;;;;;;;;5082135;28;20173;-81
2022/03/16 06:49:24;;;;;;;19.80;16.07;;;;;;;;;;5075736;28;20191;-81
2022/03/16 06:51:50;;;;;;;21.67;17.00;;;;;;;;;;5073504;28;20214;-82
2022/03/16 06:54:16;;;;;;;21.00;16.43;;;;;;;;;;5081748;28;20189;-80
2022/03/16 06:56:43;;;;;;;21.10;16.97;;;;;;;;;;5069802;28;20190;-81
2022/03/16 06:59:09;;;;;;;22.13;16.90;;;;;;;;;;5073220;28;20181;-82
2022/03/16 07:01:35;;;;;;;20.73;15.87;;;;;;;;;;5055572;28;20584;-83
2022/03/16 07:04:01;;;;;;;24.90;17.57;;;;;;;;;;5073946;28;20213;-76
2022/03/16 07:06:27;;;;;;;18.50;14.77;;;;;;;;;;5068540;28;20196;-77
2022/03/16 07:08:53;;;;;;;19.30;15.50;;;;;;;;;;5072083;28;20248;-76
2022/03/16 07:11:19;;;;;;;22.37;16.23;;;;;;;;;;5066815;28;20315;-76
2022/03/16 07:14:30;;;;;;;20.97;15.57;;;;;;;;;;5069604;28;20318;-76
2022/03/16 07:16:32;;;;;;;20.07;16.20;;;;;;;;;;5070020;28;20653;-79
2022/03/16 07:18:59;;;;;;;19.63;16.10;;;;;;;;;;5071774;28;20181;-79
2022/03/16 07:21:25;;;;;;;19.90;14.83;;;;;;;;;;5070137;28;20246;-76
2022/03/16 07:23:51;;;;;;;18.97;14.83;;;;;;;;;;5047917;28;20415;-76
2022/03/16 07:26:17;;;;;;;18.00;14.03;;;;;;;;;;5069943;28;20177;-76
2022/03/16 07:28:43;;;;;;;17.13;14.20;;;;;;;;;;5070786;28;20254;-76
2022/03/16 07:31:09;;;;;;;19.03;15.57;;;;;;;;;;5068271;28;20197;-76
2022/03/16 07:33:36;;;;;;;18.30;15.00;;;;;;;;;;5069067;28;20182;-76
2022/03/16 07:36:03;;;;;;;17.07;14.27;;;;;;;;;;5068068;28;20185;-76
2022/03/16 07:38:29;;;;;;;16.37;14.13;;;;;;;;;;5067991;28;20270;-76
2022/03/16 07:40:55;;;;;;;16.63;13.70;;;;;;;;;;5067027;28;20212;-76
2022/03/16 07:43:21;;;;;;;16.63;13.90;;;;;;;;;;5071121;28;20219;-75
2022/03/16 07:45:48;;;;;;;16.90;14.60;;;;;;;;;;5070845;28;20213;-75
2022/03/16 07:48:14;;;;;;;16.10;14.37;;;;;;;;;;5062655;28;20586;-75
2022/03/16 07:50:40;;;;;;;17.13;13.93;;;;;;;;;;5067669;28;20204;-75
2022/03/16 07:53:06;;;;;;;16.23;13.10;;;;;;;;;;5059740;28;20205;-75
2022/03/16 07:55:33;;;;;;;16.20;13.13;;;;;;;;;;5064373;28;20188;-75
2022/03/16 07:57:59;;;;;;;16.57;14.20;;;;;;;;;;5065530;28;20189;-76
2022/03/16 08:00:25;;;;;;;15.97;13.20;;;;;;;;;;5065350;28;20779;-76
2022/03/16 08:02:55;;;;;;;16.10;13.77;;;;;;;;;;5066124;28;20196;-76
2022/03/16 08:05:22;;;;;;;14.83;13.20;;;;;;;;;;5065009;28;20304;-76
2022/03/16 08:07:48;;;;;;;15.00;13.13;;;;;;;;;;5068221;28;20187;-76
2022/03/16 08:10:14;;;;;;;16.90;14.57;;;;;;;;;;5065561;28;20313;-76
2022/03/16 08:12:40;;;;;;;17.40;13.87;;;;;;;;;;5063102;28;20182;-76
2022/03/16 08:15:06;;;;;;;13.93;12.13;;;;;;;;;;5067970;28;20230;-76
2022/03/16 08:17:33;;;;;;;16.70;13.70;;;;;;;;;;5062843;28;20191;-76
2022/03/16 08:19:59;;;;;;;14.47;12.70;;;;;;;;;;5064957;28;20663;-76
2022/03/16 08:22:29;;;;;;;16.40;13.40;;;;;;;;;;5062580;28;20207;-76
2022/03/16 08:24:56;;;;;;;14.93;12.97;;;;;;;;;;5062677;28;20213;-76
2022/03/16 08:27:22;;;;;;;16.30;13.93;;;;;;;;;;5070875;28;20534;-75
2022/03/16 08:29:49;;;;;;;18.67;14.33;;;;;;;;;;5067296;28;20222;-77
2022/03/16 08:32:15;;;;;;;14.20;12.70;;;;;;;;;;5069885;28;20733;-80
2022/03/16 08:34:41;;;;;;;14.67;13.00;;;;;;;;;;5070510;28;20382;-78
2022/03/16 08:37:07;;;;;;;13.73;12.27;;;;;;;;;;5064168;28;20177;-78
2022/03/16 08:39:34;;;;;;;13.23;11.47;;;;;;;;;;5069590;28;20226;-77
2022/03/16 08:42:00;;;;;;;14.20;12.70;;;;;;;;;;5071676;28;20268;-76
2022/03/16 08:44:26;;;;;;;16.00;13.60;;;;;;;;;;5070415;28;20212;-77
2022/03/16 08:46:52;;;;;;;14.73;12.33;;;;;;;;;;5069494;28;20185;-76
2022/03/16 08:49:18;;;;;;;13.57;11.73;;;;;;;;;;5069512;28;20193;-77
2022/03/16 08:51:45;;;;;;;13.73;12.20;;;;;;;;;;5068934;28;20984;-77
2022/03/16 08:54:11;;;;;;;15.73;12.50;;;;;;;;;;5065854;28;20189;-77
2022/03/16 08:56:37;;;;;;;13.77;12.27;;;;;;;;;;5069122;28;20192;-77
2022/03/16 08:59:03;;;;;;;13.97;12.47;;;;;;;;;;5069254;28;20184;-77
2022/03/16 09:01:29;;;;;;;14.73;12.77;;;;;;;;;;5063761;28;20889;-77
2022/03/16 09:03:56;;;;;;;14.17;12.67;;;;;;;;;;5070981;28;20233;-76
2022/03/16 09:06:22;;;;;;;14.90;13.30;;;;;;;;;;5070378;28;20216;-76
2022/03/16 09:08:48;;;;;;;14.00;12.50;;;;;;;;;;5069984;28;20177;-76
2022/03/16 09:11:15;;;;;;;14.30;12.20;;;;;;;;;;5068808;28;20254;-76
2022/03/16 09:13:41;;;;;;;14.67;12.90;;;;;;;;;;5069718;28;20664;-77
2022/03/16 09:16:07;;;;;;;13.20;11.80;;;;;;;;;;5065637;28;20177;-77
2022/03/16 09:18:33;;;;;;;14.70;13.10;;;;;;;;;;5069717;28;20560;-76
2022/03/16 09:21:01;;;;;;;14.53;12.90;;;;;;;;;;5066099;28;20247;-77
2022/03/16 09:23:31;;;;;;;14.43;12.57;;;;;;;;;;5068551;28;20188;-76
2022/03/16 09:26:01;;;;;;;13.60;12.03;;;;;;;;;;5070253;28;20296;-77
2022/03/16 09:28:28;;;;;;;14.37;12.87;;;;;;;;;;5064824;28;20192;-76
2022/03/16 09:30:54;;;;;;;13.10;11.70;;;;;;;;;;5069074;28;20266;-76
2022/03/16 09:33:24;;;;;;;14.73;12.73;;;;;;;;;;5066836;28;20178;-76
2022/03/16 09:35:51;;;;;;;14.60;12.57;;;;;;;;;;5063409;28;20281;-76
2022/03/16 09:38:21;;;;;;;14.03;12.53;;;;;;;;;;5064808;28;20667;-76
2022/03/16 09:40:52;;;;;;;13.47;11.77;;;;;;;;;;5062623;28;20629;-76
2022/03/16 09:43:18;;;;;;;13.67;12.27;;;;;;;;;;5068660;28;20206;-76
2022/03/16 09:45:54;;;;;;;15.47;13.50;;;;;;;;;;5068419;28;20660;-76
2022/03/16 09:48:23;;;;;;;14.10;12.60;;;;;;;;;;5070371;28;20185;-76
2022/03/16 09:50:54;;;;;;;15.43;13.77;;;;;;;;;;5068487;28;20560;-76
2022/03/16 09:53:22;;;;;;;16.20;14.50;;;;;;;;;;5066816;28;20181;-76
2022/03/16 09:55:49;;;;;;;14.90;13.40;;;;;;;;;;5064685;28;20177;-76
2022/03/16 09:58:15;;;;;;;14.30;12.80;;;;;;;;;;5072633;28;20185;-76
2022/03/16 10:00:41;;;;;;;14.57;12.13;;;;;;;;;;5071788;28;20216;-76
2022/03/16 10:03:07;;;;;;;13.47;12.07;;;;;;;;;;5071507;28;20185;-76
2022/03/16 10:05:33;;;;;;;12.30;11.00;;;;;;;;;;5067901;28;20240;-76
2022/03/16 10:08:02;;;;;;;12.87;11.47;;;;;;;;;;5060502;28;20190;-76
2022/03/16 10:13:24;;;;;;;13.40;12.00;;;;;;;;;;5072329;28;20591;-76
2022/03/16 10:15:51;;;;;;;13.17;11.77;;;;;;;;;;5073720;28;20188;-76
2022/03/16 10:18:19;;;;;;;13.63;11.60;;;;;;;;;;5071726;28;20185;-77
2022/03/16 10:20:46;;;;;;;13.77;12.27;;;;;;;;;;5063068;28;20209;-76
2022/03/16 10:23:20;;;;;;;13.60;12.20;;;;;;;;;;5069329;28;20275;-76
2022/03/16 10:25:53;;;;;;;12.63;11.33;;;;;;;;;;5067937;28;20824;-76
2022/03/16 10:28:20;;;;;;;11.63;10.53;;;;;;;;;;5067636;28;20713;-76
2022/03/16 10:30:54;;;;;;;12.30;10.70;;;;;;;;;;5068481;28;20734;-76
2022/03/16 10:33:21;;;;;;;11.67;10.47;;;;;;;;;;5067545;28;20182;-76
2022/03/16 10:35:57;;;;;;;10.23;9.23;;;;;;;;;;5069497;28;20189;-76
2022/03/16 10:38:24;;;;;;;10.97;9.87;;;;;;;;;;5069655;28;20189;-76
2022/03/16 10:40:53;;;;;;;10.53;9.17;;;;;;;;;;5072453;28;20205;-77
2022/03/16 10:49:01;;;;;;;10.00;9.00;;;;;;;;;;5067224;28;20274;-76
2022/03/16 10:51:27;;;;;;;9.50;8.60;;;;;;;;;;5070344;28;20943;-77
2022/03/16 10:53:54;;;;;;;10.30;9.20;;;;;;;;;;5070918;28;20547;-78
2022/03/16 10:56:20;;;;;;;9.33;8.43;;;;;;;;;;5072715;28;20667;-79
2022/03/16 10:58:49;;;;;;;8.87;7.97;;;;;;;;;;5074064;28;20727;-79
2022/03/16 11:01:16;;;;;;;8.17;7.40;;;;;;;;;;5072851;28;20205;-78
2022/03/16 11:03:44;;;;;;;8.13;7.43;;;;;;;;;;5069670;28;20250;-79
2022/03/16 11:06:12;;;;;;;8.43;7.53;;;;;;;;;;5060604;28;20583;-79
2022/03/16 11:08:39;;;;;;;8.83;7.93;;;;;;;;;;5070420;28;20173;-79
2022/03/16 11:13:28;;;;;;;7.50;6.80;;;;;;;;;;5074911;28;20189;-85
2022/03/16 11:13:52;;;;;;;8.03;7.23;;;;;;;;;;5074830;28;20185;-76
2022/03/16 11:16:20;;;;;;;11.00;9.43;;;;;;;;;;5070126;28;20185;-75
2022/03/16 11:18:51;;;;;;;9.53;8.63;;;;;;;;;;5070373;28;20231;-75
2022/03/16 11:21:23;;;;;;;8.43;7.63;;;;;;;;;;5068463;28;20212;-77
2022/03/16 11:26:44;;;;;;;8.20;7.40;;;;;;;;;;5069762;28;20177;-77
2022/03/16 11:29:22;;;;;;;7.83;7.00;;;;;;;;;;5081938;28;20173;-76
2022/03/16 11:31:48;;;;;;;7.33;6.63;;;;;;;;;;5067830;28;20284;-77
2022/03/16 11:34:21;;;;;;;8.80;8.00;;;;;;;;;;5063708;28;20250;-78
2022/03/16 11:36:59;;;;;;;8.60;7.80;;;;;;;;;;5067808;28;20203;-77
2022/03/16 11:39:25;;;;;;;8.33;7.40;;;;;;;;;;5070005;28;20181;-78
2022/03/16 11:41:52;;;;;;;6.80;6.20;;;;;;;;;;5060192;28;20257;-78
2022/03/16 11:44:28;;;;;;;7.17;6.57;;;;;;;;;;5067557;28;21046;-78
2022/03/16 11:46:54;;;;;;;7.77;7.07;;;;;;;;;;5070717;28;20279;-78
2022/03/16 11:49:30;;;;;;;8.00;7.20;;;;;;;;;;5067537;28;20218;-78
2022/03/16 11:51:57;;;;;;;7.23;6.53;;;;;;;;;;5063998;28;20209;-78
2022/03/16 11:54:39;;;;;;;6.47;5.87;;;;;;;;;;5049692;28;20901;-78
2022/03/16 11:57:05;;;;;;;7.47;6.77;;;;;;;;;;5068447;28;20215;-79
2022/03/16 11:59:32;;;;;;;6.73;6.13;;;;;;;;;;5066999;28;20220;-82
2022/03/16 12:02:31;;;;;;;7.63;6.90;;;;;;;;;;5057318;28;20755;-82
2022/03/16 12:05:00;;;;;;;7.00;6.00;;;;;;;;;;5036934;28;20258;-82
2022/03/16 12:07:33;;;;;;;6.40;5.80;;;;;;;;;;5049889;28;20189;-81
2022/03/16 12:10:01;;;;;;;5.87;5.37;;;;;;;;;;5068420;28;20564;-83
2022/03/16 12:12:51;;;;;;;5.90;5.40;;;;;;;;;;5060288;28;20205;-82
2022/03/16 12:15:21;;;;;;;5.93;5.43;;;;;;;;;;5069390;28;20241;-83
2022/03/16 12:17:54;;;;;;;6.10;5.60;;;;;;;;;;5053460;28;20180;-84
2022/03/16 12:20:23;;;;;;;5.50;5.00;;;;;;;;;;5052323;28;20189;-82
2022/03/16 12:22:51;;;;;;;5.10;4.60;;;;;;;;;;5065773;28;20173;-81
2022/03/16 12:25:27;;;;;;;5.50;5.00;;;;;;;;;;5069408;28;20571;-83
2022/03/16 12:30:54;;;;;;;5.20;4.80;;;;;;;;;;5066524;28;20267;-81
2022/03/16 12:33:28;;;;;;;5.40;4.90;;;;;;;;;;5083084;28;20177;-80
2022/03/16 12:35:59;;;;;;;5.87;5.20;;;;;;;;;;5078203;28;20273;-80
2022/03/16 12:38:29;;;;;;;6.03;5.53;;;;;;;;;;5070356;28;20699;-80
2022/03/16 12:43:44;;;;;;;6.53;5.13;;;;;;;;;;5058835;28;20209;-80
2022/03/16 12:46:25;;;;;;;6.10;5.50;;;;;;;;;;5068585;28;20182;-80
2022/03/16 12:48:55;;;;;;;5.80;5.30;;;;;;;;;;5069280;28;20530;-80
2022/03/16 12:51:43;;;;;;;6.80;6.20;;;;;;;;;;5069158;28;20216;-80
2022/03/16 12:54:10;;;;;;;5.50;5.00;;;;;;;;;;5063869;28;20780;-80
2022/03/16 12:56:39;;;;;;;7.27;6.10;;;;;;;;;;5082950;28;20245;-81
2022/03/16 12:59:05;;;;;;;6.80;6.10;;;;;;;;;;5069936;28;20189;-80
2022/03/16 13:01:32;;;;;;;6.40;5.80;;;;;;;;;;5065998;28;20225;-80
2022/03/16 13:04:00;;;;;;;5.10;4.67;;;;;;;;;;5065869;28;20181;-80
2022/03/16 13:06:33;;;;;;;6.17;5.33;;;;;;;;;;5066509;28;20170;-80
2022/03/16 13:09:00;;;;;;;5.57;5.10;;;;;;;;;;5049836;28;20189;-80
2022/03/16 13:11:29;;;;;;;6.07;5.57;;;;;;;;;;5065886;28;20210;-79
2022/03/16 13:14:06;;;;;;;6.70;6.00;;;;;;;;;;5046337;28;20184;-78
2022/03/16 13:16:39;;;;;;;8.03;7.27;;;;;;;;;;5065431;28;20188;-79
2022/03/16 13:19:07;;;;;;;8.47;7.50;;;;;;;;;;5066348;28;20968;-79
2022/03/16 13:21:35;;;;;;;7.93;7.13;;;;;;;;;;5067945;28;20296;-79
2022/03/16 13:24:09;;;;;;;7.87;7.10;;;;;;;;;;5063292;28;20173;-79
2022/03/16 13:26:36;;;;;;;9.50;8.60;;;;;;;;;;5064183;28;20176;-79
2022/03/16 13:29:05;;;;;;;8.07;6.97;;;;;;;;;;5052954;28;20691;-79
2022/03/16 13:31:32;;;;;;;7.47;6.23;;;;;;;;;;5070378;28;20203;-79
2022/03/16 13:34:02;;;;;;;9.00;7.77;;;;;;;;;;5073145;28;20218;-79
2022/03/16 13:36:39;;;;;;;7.23;5.40;;;;;;;;;;5070375;28;20256;-80
2022/03/16 13:39:41;;;;;;;5.83;5.33;;;;;;;;;;5070204;28;20181;-80
2022/03/16 13:42:12;;;;;;;7.43;6.60;;;;;;;;;;5059500;28;20255;-80
2022/03/16 13:44:40;;;;;;;6.37;5.77;;;;;;;;;;5070183;28;20303;-80
2022/03/16 13:47:12;;;;;;;9.20;8.30;;;;;;;;;;5074461;28;20184;-80
2022/03/16 13:49:40;;;;;;;11.47;8.33;;;;;;;;;;5073912;28;20173;-80
2022/03/16 13:52:11;;;;;;;7.90;7.20;;;;;;;;;;5074350;28;20192;-80
2022/03/16 13:54:38;;;;;;;7.33;6.60;;;;;;;;;;5064205;28;20199;-80
2022/03/16 13:57:12;;;;;;;6.63;6.03;;;;;;;;;;5068986;28;20212;-80
2022/03/16 13:59:39;;;;;;;7.63;6.27;;;;;;;;;;5067130;28;20185;-81
2022/03/16 14:02:12;;;;;;;6.43;5.47;;;;;;;;;;5069087;28;20283;-80
2022/03/16 14:04:40;;;;;;;6.13;5.53;;;;;;;;;;5067626;28;20334;-80
2022/03/16 14:07:23;;;;;;;5.83;5.33;;;;;;;;;;5085292;28;21440;-80
2022/03/16 14:09:50;;;;;;;6.00;5.40;;;;;;;;;;5068991;28;20648;-80
2022/03/16 14:12:18;;;;;;;6.53;4.53;;;;;;;;;;5067277;28;20269;-80
2022/03/16 14:14:45;;;;;;;6.70;5.13;;;;;;;;;;5069770;28;20192;-80
2022/03/16 14:17:11;;;;;;;6.33;4.83;;;;;;;;;;5070430;28;20841;-80
2022/03/16 14:19:39;;;;;;;5.43;4.83;;;;;;;;;;5068913;28;20173;-80
2022/03/16 14:22:07;;;;;;;5.80;5.17;;;;;;;;;;5085761;28;20702;-80
2022/03/16 14:24:34;;;;;;;5.20;4.23;;;;;;;;;;5069330;28;20217;-80
2022/03/16 14:27:16;;;;;;;5.60;5.10;;;;;;;;;;5078038;28;20181;-79
2022/03/16 14:29:45;;;;;;;6.77;4.90;;;;;;;;;;5073926;28;20173;-80
2022/03/16 14:32:12;;;;;;;6.83;6.07;;;;;;;;;;5067019;28;20748;-80
2022/03/16 14:34:40;;;;;;;6.73;5.77;;;;;;;;;;5070465;28;20179;-79
2022/03/16 14:37:06;;;;;;;5.70;5.10;;;;;;;;;;5074029;28;20260;-80
2022/03/16 14:39:33;;;;;;;6.30;5.60;;;;;;;;;;5070299;28;20185;-80
2022/03/16 14:41:59;;;;;;;6.47;5.37;;;;;;;;;;5068374;28;20563;-81
2022/03/16 14:44:25;;;;;;;6.20;5.47;;;;;;;;;;5046432;28;20359;-80